Archival Weather

Fukuoka

Fukuoka, Japan (RJFF)

Report from: Monday, August 15, 2022 4:30 PM JST
Current time: Sunday, February 25, 2024 1:22 AM JST

Current weather – Weather history – Daily summaries
Weather forecast

Temperature32.0°C (89.6°F)
Heat index39.2°C (102.6°F)
Dew point25.0°C (77.0°F)
Winds 14 kts (7.2 m/s, 16.1 mph) South (180°)
Visibility6.2 mi. (10 km)
Clouds Ceiling: Broken clouds 0 ft. (0 m)
Few clouds 1,500 ft. (457 m)
Scattered clouds 4,000 ft. (1,219 m)
Altimeter29.71 in.Hg (1006 mB)
Relative humidity67 %
Density altitude2,607 ft. (795 m)
Remarks No significant changes expected in the next two hours
Flight conditions Low Instrument Meteorological Conditions
Raw dataRJFF 150730Z 18014KT 9999 FEW015 SCT040 BKN/// 32/25 Q1006 NOSIG
An error has occurred. This application may no longer respond until reloaded. Reload 🗙